Data for 06/17/2005

Time Sea-Level Adjusted Pressure Absolute Pressure Temperature Relative Humidity Dew Point   
(mb) (inHg) (mb) (inHg) (C) (F) (%) (C) (F)
00:05 1011 29.85 840 24.81 14 57.1 79 10.4 50.8
00:10 1011 29.85 840 24.81 14 57.2 78 10.2 50.3
00:15 1011 29.85 840 24.81 13.9 57.1 79 10.4 50.6
00:20 1011 29.85 840 24.81 13.9 57.1 78 10.2 50.3
00:25 1011 29.85 840 24.81 13.8 56.9 78 10.1 50.1
00:30 1010 29.83 840 24.81 13.7 56.6 80 10.4 50.7
00:35 1010 29.83 840 24.81 13.3 55.9 82 10.3 50.5
00:40 1010 29.83 840 24.81 13.2 55.7 81 10 49.9
00:45 1010 29.83 840 24.81 13 55.4 82 10 50
00:50 1010 29.83 840 24.81 12.9 55.2 81 9.7 49.4
00:55 1010 29.83 840 24.81 13 55.3 80 9.7 49.4
01:00 1010 29.83 839 24.78 12.9 55.3 82 9.9 49.8
01:05 1010 29.83 839 24.78 12.7 54.8 83 9.9 49.8
01:10 1010 29.83 839 24.78 12.5 54.4 83 9.6 49.3
01:15 1010 29.83 839 24.78 12.7 54.8 81 9.5 49.1
01:20 1010 29.83 839 24.78 12.9 55.2 78 9.1 48.4
01:25 1010 29.83 839 24.78 13.2 55.7 76 9.2 48.5
01:30 1010 29.83 839 24.78 13.2 55.8 76 9.2 48.5
01:35 1009 29.8 839 24.78 13.2 55.8 77 9.2 48.6
01:40 1009 29.8 838 24.75 13.3 55.9 75 9 48.3
01:45 1009 29.8 838 24.75 13.9 57.1 73 9.2 48.6
01:50 1009 29.8 838 24.75 14.2 57.6 73 9.5 49.2
01:55 1009 29.8 838 24.75 14.2 57.6 74 9.7 49.5
02:00 1009 29.8 838 24.75 14.2 57.6 76 10 50
02:05 1009 29.8 838 24.75 14.2 57.6 76 10.1 50.2
02:10 1009 29.8 838 24.75 14.2 57.6 76 10.1 50.2
02:15 1009 29.8 838 24.75 14.3 57.8 76 10.1 50.2
02:20 1009 29.8 838 24.75 14.5 58 75 10.2 50.4
02:25 1008 29.77 838 24.75 14.7 58.4 75 10.3 50.5
02:30 1008 29.77 837 24.72 14.7 58.4 75 10.4 50.6
02:35 1008 29.77 837 24.72 14.7 58.5 75 10.4 50.7
02:40 1008 29.77 837 24.72 14.7 58.5 76 10.5 50.9
02:45 1008 29.77 837 24.72 14.6 58.3 77 10.6 51
02:50 1008 29.77 837 24.72 14.4 58 77 10.5 50.9
02:55 1008 29.77 837 24.72 14.5 58 77 10.5 51
03:00 1008 29.77 837 24.72 14.6 58.2 76 10.5 50.9
03:05 1008 29.77 837 24.72 14.7 58.4 77 10.6 51.1
03:10 1008 29.77 837 24.72 14.7 58.5 76 10.6 51.1
03:15 1008 29.77 837 24.72 14.8 58.6 76 10.6 51.2
03:20 1008 29.77 837 24.72 14.8 58.6 75 10.4 50.8
03:25 1008 29.77 837 24.72 14.2 57.5 79 10.6 51.1
03:30 1008 29.77 837 24.72 14.5 58.1 77 10.5 50.9
03:35 1008 29.77 837 24.72 14.8 58.6 77 10.8 51.4
03:40 1008 29.77 837 24.72 14.8 58.6 77 10.8 51.5
03:45 1008 29.77 837 24.72 14.7 58.5 78 10.9 51.6
03:50 1008 29.77 837 24.72 14.6 58.4 78 10.9 51.6
03:55 1008 29.77 837 24.72 14.6 58.4 78 10.9 51.6
04:00 1008 29.77 837 24.72 14.7 58.4 77 10.7 51.3
04:05 1008 29.77 837 24.72 14.7 58.5 77 10.8 51.4
04:10 1008 29.77 837 24.72 14.8 58.6 76 10.7 51.3
04:15 1007 29.74 837 24.72 14.7 58.5 76 10.6 51.2
04:20 1008 29.77 837 24.72 14.8 58.7 76 10.7 51.3
04:25 1008 29.77 837 24.72 14.7 58.4 77 10.7 51.3
04:30 1008 29.77 837 24.72 14.7 58.4 77 10.6 51.1
04:35 1008 29.77 837 24.72 14.7 58.4 76 10.5 51
04:40 1008 29.77 837 24.72 14.6 58.3 77 10.7 51.3
04:45 1008 29.77 837 24.72 14.5 58 79 10.9 51.5
04:50 1008 29.77 837 24.72 14.3 57.7 79 10.8 51.4
04:55 1008 29.77 837 24.72 14.3 57.7 79 10.8 51.4
05:00 1008 29.77 837 24.72 14.3 57.8 80 10.9 51.7
05:05 1007 29.74 837 24.72 14.2 57.6 81 11 51.8
05:10 1008 29.77 837 24.72 14.1 57.4 80 10.8 51.5
05:15 1007 29.74 837 24.72 14.2 57.5 79 10.6 51
05:20 1007 29.74 837 24.72 14.3 57.7 79 10.6 51.1
05:25 1007 29.74 837 24.72 14.3 57.7 77 10.3 50.5
05:30 1007 29.74 837 24.72 14.3 57.8 77 10.3 50.6
05:35 1007 29.74 836 24.69 14.3 57.8 77 10.4 50.7
05:40 1007 29.74 837 24.72 14.2 57.6 77 10.3 50.5
05:45 1007 29.74 837 24.72 14.2 57.6 77 10.3 50.6
05:50 1007 29.74 836 24.69 14.3 57.7 76 10.1 50.3
05:55 1007 29.74 836 24.69 14.3 57.8 77 10.4 50.8
06:00 1007 29.74 836 24.69 14.4 57.8 77 10.4 50.7
06:05 1007 29.74 836 24.69 14.2 57.6 79 10.7 51.3
06:10 1007 29.74 836 24.69 14.1 57.4 80 10.8 51.4
06:15 1007 29.74 836 24.69 14 57.1 81 10.9 51.5
06:20 1007 29.74 836 24.69 14 57.2 81 10.9 51.6
06:25 1007 29.74 836 24.69 14 57.3 81 10.9 51.7
06:30 1007 29.74 836 24.69 14.1 57.4 80 10.8 51.4
06:35 1007 29.74 836 24.69 14 57.3 82 11 51.8
06:40 1007 29.74 836 24.69 14 57.3 82 11 51.8
06:45 1007 29.74 836 24.69 14 57.2 81 10.8 51.5
06:50 1007 29.74 836 24.69 14.1 57.4 80 10.7 51.3
06:55 1007 29.74 836 24.69 14.2 57.6 80 10.7 51.3
07:00 1007 29.74 836 24.69 14.2 57.5 80 10.8 51.4
07:05 1007 29.74 836 24.69 14.2 57.6 79 10.6 51.2
07:10 1007 29.74 836 24.69 14.3 57.7 78 10.6 51
07:15 1007 29.74 836 24.69 14.3 57.7 78 10.6 51.1
07:20 1007 29.74 836 24.69 14.3 57.7 79 10.7 51.2
07:25 1007 29.74 836 24.69 14.3 57.7 77 10.4 50.7
07:30 1007 29.74 836 24.69 14.4 57.9 76 10.2 50.4
07:35 1007 29.74 836 24.69 14.5 58.1 75 10.2 50.3
07:40 1007 29.74 836 24.69 14.6 58.3 75 10.2 50.3
07:45 1007 29.74 836 24.69 14.8 58.7 74 10.3 50.5
07:50 1007 29.74 836 24.69 15.1 59.1 70 9.8 49.6
07:55 1006 29.71 836 24.69 15.3 59.5 72 10.3 50.5
08:00 1006 29.71 836 24.69 15.3 59.5 71 10 50.1
08:05 1006 29.71 836 24.69 15.4 59.6 71 10.1 50.2
08:10 1006 29.71 836 24.69 15.5 59.9 70 10 50
08:15 1006 29.71 836 24.69 15.6 60.1 69 10 50
08:20 1006 29.71 835 24.66 15.8 60.4 68 10 50
08:25 1006 29.71 836 24.69 15.9 60.6 69 10.2 50.3
08:30 1006 29.71 836 24.69 16 60.9 67 10 50
08:35 1006 29.71 836 24.69 16.5 61.6 66 10.2 50.4
08:40 1006 29.71 835 24.66 16.6 62 65 10.1 50.2
08:45 1006 29.71 835 24.66 16.8 62.2 65 10.2 50.3
08:50 1006 29.71 835 24.66 16.9 62.4 64 10.2 50.3
08:55 1006 29.71 835 24.66 16.8 62.3 64 10.1 50.1
09:00 1006 29.71 835 24.66 16.9 62.5 64 10.2 50.3
09:05 1006 29.71 835 24.66 17.1 62.8 63 10.1 50.1
09:10 1006 29.71 835 24.66 17.5 63.4 63 10.4 50.7
09:15 1006 29.71 835 24.66 17.9 64.1 60 10.1 50.1
09:20 1006 29.71 835 24.66 18.4 65.1 58 10.1 50.3
09:25 1006 29.71 835 24.66 18.9 66 58 10.5 50.9
09:30 1006 29.71 835 24.66 18.9 65.9 56 10.1 50.1
09:35 1006 29.71 835 24.66 19.2 66.6 55 10.1 50.1
09:40 1005 29.68 835 24.66 19.6 67.2 54 10 50.1
09:45 1006 29.71 835 24.66 19.8 67.7 52 9.8 49.6
09:50 1005 29.68 835 24.66 20.3 68.5 49 9.4 48.9
09:55 1005 29.68 835 24.66 20.8 69.4 49 9.7 49.5
10:00 1005 29.68 835 24.66 20.7 69.3 50 10 50.1
10:05 1005 29.68 835 24.66 20.9 69.7 48 9.6 49.3
10:10 1005 29.68 834 24.63 21.4 70.6 47 9.6 49.4
10:15 1005 29.68 834 24.63 21.4 70.5 45 9.3 48.7
10:20 1005 29.68 834 24.63 21.5 70.6 44 9 48.1
10:25 1005 29.68 834 24.63 21.8 71.3 43 9 48.2
10:30 1005 29.68 834 24.63 22.1 71.8 41 8.6 47.4
10:35 1005 29.68 834 24.63 23.1 73.6 31 5.1 41.2
10:40 1005 29.68 834 24.63 23.7 74.7 46 11.4 52.6
10:45 1005 29.68 834 24.63 23.2 73.8 40 9.1 48.4
10:50 1005 29.68 834 24.63 23.4 74.1 46 11.4 52.5
10:55 1005 29.68 834 24.63 23.9 75 42 10.5 50.8
11:00 1005 29.68 834 24.63 24.7 76.5 43 11.7 53
11:05 1005 29.68 834 24.63 24.9 76.7 43 11.5 52.7
11:10 1005 29.68 834 24.63 25.4 77.8 37 10 50
11:15 1005 29.68 834 24.63 26 78.8 40 11.4 52.5
11:20 1005 29.68 834 24.63 25.1 77.2 35 8.8 47.9
11:25 1005 29.68 834 24.63 25.8 78.5 29 6.8 44.2
11:30 1005 29.68 834 24.63 25.3 77.6 28 5.7 42.3
11:35 1005 29.68 834 24.63 25.4 77.8 24 3.8 38.9
11:40 1005 29.68 834 24.63 25.1 77.1 23 2.5 36.6
11:45 1005 29.68 834 24.63 25.1 77.1 20 1 33.7
11:50 1004 29.65 834 24.63 24.7 76.5 20 0.7 33.3
11:55 1004 29.65 834 24.63 24.9 76.8 19 0.2 32.3
12:00 1004 29.65 833 24.6 25.1 77.2 19 -0.1 31.7
12:05 1004 29.65 833 24.6 25.3 77.5 16 -1.9 28.6
12:10 1004 29.65 834 24.63 25.3 77.5 16 -1.8 28.8
12:15 1004 29.65 834 24.63 25.2 77.3 18 -0.7 30.7
12:20 1004 29.65 833 24.6 25.1 77.3 21 1.3 34.3
12:25 1004 29.65 833 24.6 25.4 77.8 18 -0.3 31.5
12:30 1004 29.65 833 24.6 25.6 78 19 0.3 32.6
12:35 1004 29.65 833 24.6 25.3 77.5 19 0.2 32.3
12:40 1004 29.65 833 24.6 25.6 78 19 0.5 32.8
12:45 1004 29.65 833 24.6 25.9 78.6 22 3 37.4
12:50 1004 29.65 833 24.6 25.8 78.4 20 1.2 34.2
12:55 1004 29.65 833 24.6 25.9 78.7 19 0.8 33.5
13:00 1004 29.65 833 24.6 25.5 77.8 19 0.2 32.3
13:05 1004 29.65 833 24.6 25.7 78.2 18 0.1 32.2
13:10 1004 29.65 833 24.6 25.4 77.7 18 -0.7 30.7
13:15 1004 29.65 833 24.6 25.7 78.2 18 0.1 32.3
13:20 1004 29.65 833 24.6 25.5 78 18 0 32.1
13:25 1004 29.65 833 24.6 25.9 78.5 19 1 33.9
13:30 1004 29.65 833 24.6 25.5 77.9 20 1.1 33.9
13:35 1004 29.65 833 24.6 25.1 77.1 18 -0.8 30.6
13:40 1004 29.65 833 24.6 25.4 77.6 22 2.1 35.7
13:45 1004 29.65 833 24.6 25.4 77.6 19 0.7 33.2
13:50 1004 29.65 833 24.6 25.3 77.6 19 0.6 33.1
13:55 1004 29.65 833 24.6 25.5 77.9 22 2.4 36.4
14:00 1004 29.65 833 24.6 25.7 78.2 22 2.5 36.4
14:05 1004 29.65 833 24.6 25.6 78.2 19 0.9 33.6
14:10 1004 29.65 833 24.6 26 78.7 18 0.2 32.4
14:15 1004 29.65 833 24.6 25.9 78.6 19 0.6 33.1
14:20 1004 29.65 833 24.6 25.8 78.4 20 1.5 34.8
14:25 1004 29.65 833 24.6 25.9 78.5 20 1.3 34.3
14:30 1004 29.65 833 24.6 25.7 78.2 20 1.2 34.2
14:35 1004 29.65 833 24.6 25.6 78 22 2.6 36.7
14:40 1004 29.65 833 24.6 25.5 77.8 21 1.6 34.9
14:45 1004 29.65 833 24.6 25.6 78 20 1.4 34.4
14:50 1004 29.65 833 24.6 25.8 78.5 22 2.9 37.2
14:55 1004 29.65 834 24.63 25.9 78.7 18 0.1 32.2
15:00 1004 29.65 834 24.63 25.7 78.2 22 2.7 36.8
15:05 1004 29.65 834 24.63 25.7 78.2 20 1.3 34.4
15:10 1005 29.68 834 24.63 25.4 77.7 20 0.9 33.5
15:15 1005 29.68 834 24.63 26 78.9 20 1.7 35.1
15:20 1005 29.68 834 24.63 25.4 77.7 21 1.9 35.4
15:25 1005 29.68 834 24.63 25.6 78 21 2 35.6
15:30 1005 29.68 834 24.63 25.8 78.5 23 3.1 37.6
15:35 1005 29.68 834 24.63 25.5 77.9 24 3.9 39
15:40 1005 29.68 834 24.63 25.5 77.9 20 1.5 34.7
15:45 1005 29.68 834 24.63 25.4 77.8 23 2.9 37.2
15:50 1005 29.68 834 24.63 25.4 77.7 22 2.4 36.4
15:55 1005 29.68 834 24.63 25.3 77.6 23 3 37.5
16:00 1005 29.68 834 24.63 25.5 77.9 22 2.7 36.8
16:05 1005 29.68 834 24.63 25.7 78.2 23 3.2 37.8
16:10 1005 29.68 834 24.63 25.9 78.6 21 2 35.6
16:15 1005 29.68 834 24.63 25.5 77.9 23 3 37.4
16:20 1005 29.68 834 24.63 25.3 77.5 23 3.1 37.5
16:25 1005 29.68 834 24.63 25.4 77.7 24 3.7 38.7
16:30 1005 29.68 834 24.63 25 77 25 4.1 39.4
16:35 1005 29.68 834 24.63 24.2 75.6 26 3.7 38.6
16:40 1005 29.68 834 24.63 23.6 74.5 26 3.5 38.2
16:45 1005 29.68 834 24.63 23.4 74.2 26 3 37.4
16:50 1005 29.68 834 24.63 23.3 73.9 26 3.2 37.7
16:55 1005 29.68 835 24.66 23.3 73.9 26 3 37.4
17:00 1006 29.71 835 24.66 23.7 74.7 26 3.4 38.2
17:05 1006 29.71 835 24.66 24.2 75.6 29 5.3 41.5
17:10 1006 29.71 835 24.66 22.7 72.8 35 6.7 44
17:15 1006 29.71 835 24.66 21.1 69.9 40 7 44.6
17:20 1006 29.71 835 24.66 20.9 69.6 40 6.9 44.4
17:25 1006 29.71 835 24.66 20.6 69.1 40 6.6 43.9
17:30 1006 29.71 835 24.66 20.3 68.5 44 7.8 46
17:35 1006 29.71 836 24.69 19.6 67.2 45 7.5 45.5
17:40 1007 29.74 836 24.69 18.9 66 46 7.3 45.2
17:45 1007 29.74 836 24.69 18.5 65.2 49 7.6 45.6
17:50 1007 29.74 836 24.69 18.1 64.6 49 7.4 45.4
17:55 1007 29.74 836 24.69 17.9 64.3 50 7.5 45.6
18:00 1008 29.77 837 24.72 17.9 64.2 51 7.8 46.1
18:05 1007 29.74 837 24.72 17.4 63.3 57 8.9 48.1
18:10 1008 29.77 837 24.72 16.9 62.5 59 9 48.3
18:15 1008 29.77 837 24.72 16.5 61.7 61 9.1 48.4
18:20 1008 29.77 837 24.72 16.3 61.3 59 8.4 47.2
18:25 1008 29.77 837 24.72 16.4 61.6 60 8.6 47.5
18:30 1008 29.77 837 24.72 16.4 61.5 59 8.5 47.2
18:35 1008 29.77 837 24.72 16.1 61 61 8.8 47.8
18:40 1008 29.77 837 24.72 15.7 60.3 62 8.5 47.4
18:45 1009 29.8 838 24.75 15.5 59.8 61 8.1 46.6
18:50 1009 29.8 838 24.75 15.5 59.9 60 7.9 46.3
18:55 1009 29.8 838 24.75 15 59 63 8 46.4
19:00 1009 29.8 838 24.75 14.6 58.3 64 8 46.5
19:05 1009 29.8 838 24.75 14.4 57.8 67 8.3 47
19:10 1009 29.8 838 24.75 14.2 57.6 66 7.9 46.3
19:15 1009 29.8 838 24.75 14.2 57.6 65 7.9 46.2
19:20 1009 29.8 838 24.75 14.2 57.5 67 8.3 46.9
19:25 1009 29.8 838 24.75 13.9 57.1 68 8.3 46.9
19:30 1009 29.8 838 24.75 13.9 57 64 7.2 45
19:35 1009 29.8 838 24.75 14 57.1 62 6.9 44.4
19:40 1009 29.8 838 24.75 13.7 56.7 64 7 44.7
19:45 1009 29.8 838 24.75 13.7 56.6 64 7.1 44.7
19:50 1009 29.8 839 24.78 13.8 56.9 65 7.4 45.2
19:55 1010 29.83 839 24.78 13.8 56.8 65 7.5 45.5
20:00 1009 29.8 839 24.78 13.7 56.7 64 7 44.6
20:05 1010 29.83 839 24.78 13.5 56.3 64 7 44.5
20:10 1010 29.83 839 24.78 13.5 56.3 65 7 44.7
20:15 1011 29.85 840 24.81 13.4 56.1 68 7.6 45.7
20:20 1010 29.83 839 24.78 13 55.3 75 8.6 47.5
20:25 1010 29.83 839 24.78 12 53.7 82 9.1 48.5
20:30 1010 29.83 839 24.78 12 53.5 81 8.8 47.9
20:35 1010 29.83 839 24.78 11.9 53.3 78 8.3 46.9
20:40 1010 29.83 839 24.78 11.9 53.3 81 8.7 47.7
20:45 1010 29.83 839 24.78 12 53.5 78 8.3 47
20:50 1010 29.83 839 24.78 12 53.5 80 8.7 47.7
20:55 1010 29.83 840 24.81 12 53.6 78 8.3 46.9
21:00 1010 29.83 840 24.81 11.9 53.5 80 8.5 47.4
21:05 1011 29.85 840 24.81 11.8 53.3 79 8.2 46.8
21:10 1011 29.85 840 24.81 11.7 53 79 8.2 46.8
21:15 1011 29.85 840 24.81 11.7 53.1 81 8.6 47.5
21:20 1011 29.85 840 24.81 11.6 52.8 81 8.4 47.2
21:25 1011 29.85 840 24.81 11.4 52.6 82 8.5 47.4
21:30 1011 29.85 840 24.81 11.3 52.3 84 8.7 47.7
21:35 1011 29.85 840 24.81 11.1 52 85 8.7 47.6
21:40 1011 29.85 840 24.81 10.9 51.5 86 8.6 47.4
21:45 1011 29.85 841 24.83 10.9 51.6 82 7.9 46.2
21:50 1011 29.85 840 24.81 11 51.8 79 7.6 45.6
21:55 1011 29.85 841 24.83 10.9 51.7 77 7 44.6
22:00 1012 29.88 841 24.83 10.6 51.2 77 6.8 44.3
22:05 1011 29.85 841 24.83 10.4 50.8 76 6.4 43.5
22:10 1011 29.85 840 24.81 10.3 50.6 75 6.2 43.2
22:15 1011 29.85 841 24.83 10.4 50.7 76 6.4 43.6
22:20 1011 29.85 841 24.83 10.4 50.7 76 6.3 43.3
22:25 1012 29.88 841 24.83 10.4 50.6 76 6.4 43.5
22:30 1012 29.88 841 24.83 10.3 50.5 79 6.8 44.2
22:35 1012 29.88 841 24.83 10.3 50.5 79 6.8 44.3
22:40 1012 29.88 841 24.83 10.1 50.2 79 6.7 44.1
22:45 1012 29.88 841 24.83 10 50.1 80 6.8 44.2
22:50 1012 29.88 841 24.83 10 50 79 6.5 43.7
22:55 1012 29.88 841 24.83 9.9 49.8 76 6 42.8
23:00 1012 29.88 841 24.83 9.8 49.7 77 6 42.8
23:05 1012 29.88 841 24.83 9.9 49.7 77 5.9 42.7
23:10 1012 29.88 841 24.83 9.7 49.4 78 5.9 42.7
23:15 1012 29.88 841 24.83 9.4 48.9 82 6.5 43.7
23:20 1012 29.88 841 24.83 9.3 48.8 81 6.3 43.3
23:25 1012 29.88 841 24.83 9.4 49 82 6.5 43.6
23:30 1012 29.88 841 24.83 9.4 48.9 80 6.1 43.1
23:35 1011 29.85 841 24.83 9.4 48.9 77 5.5 41.9
23:40 1012 29.88 841 24.83 9.6 49.2 76 5.6 42.1
23:45 1012 29.88 841 24.83 9.7 49.5 75 5.5 41.9
23:50 1012 29.88 841 24.83 9.7 49.5 75 5.5 41.9
23:55 1012 29.88 841 24.83 9.8 49.6 75 5.5 41.9
24:00 1012 29.88 841 24.83 9.8 49.6 75 5.5 41.9